»·PEaware :: N72FA KCMA-KSNA

N72FA :: KCMA-KSNA

FLIGHT INFORMATION

Flight Status: Arrived
Operator: Privately registered:
United States
More flights under this callsign
Pilot: Fco Javier A. (25981)
Aircraft: CESSNA 172 SKYHAWK
(C172)
More flights by this aircraft type
Origin: KCMA Camarillo
United States
Destination: KSNA John Wayne-Orange Co
United States
More flights between these airports :: More routes between these airports
Route: +LAX
File this flight plan on PilotEdge
Remarks: Learning English Numbers Slowly Please THANKS
Altitude:
(Current/Filed)
3,500ft
Speed:
(Current/Filed)
100kts
Departed: 19-Oct-19 11:48 AM
Arrived: 19-Oct-19 12:41 PM
Distance/Time
Traveled:
69nm/0:53
Distance/Time
To Go:
Arrived

Flight Plot

Page will automatically refresh every two minutes.

Flight plan parsing failed; only flown route is shown


Map Options




Map Legend


Flown Route
Filed Route
Departure Airport
Arrival Airport
Navaid (VOR, NDB)
Fix

Horizontal Profiles

Position Reports

Time Latitude Longitude Heading Altitude Ground
Speed
19-Oct-19 11:26 34.210350 -119.076468 90 75ft 0kts
19-Oct-19 11:27 34.210350 -119.076468 90 75ft 0kts
19-Oct-19 11:28 34.210350 -119.076468 90 75ft 0kts
19-Oct-19 11:29 34.210350 -119.076468 90 75ft 0kts
19-Oct-19 11:30 34.210350 -119.076468 90 75ft 0kts
19-Oct-19 11:31 34.210350 -119.076468 90 75ft 0kts
19-Oct-19 11:32 34.210350 -119.076468 90 75ft 0kts
19-Oct-19 11:33 34.210350 -119.076468 90 75ft 0kts
19-Oct-19 11:34 34.210350 -119.076468 90 75ft 0kts
19-Oct-19 11:35 34.210350 -119.076468 90 75ft 0kts
19-Oct-19 11:36 34.210350 -119.076468 90 75ft 0kts
19-Oct-19 11:37 34.210350 -119.076468 90 75ft 0kts
19-Oct-19 11:38 34.210350 -119.076468 90 75ft 0kts
19-Oct-19 11:39 34.210425 -119.076192 54 75ft 9kts
19-Oct-19 11:40 34.211232 -119.077939 271 75ft 13kts
19-Oct-19 11:41 34.211278 -119.082618 270 75ft 13kts
19-Oct-19 11:42 34.212763 -119.084617 3 75ft 0kts
19-Oct-19 11:43 34.212763 -119.084617 3 75ft 0kts
19-Oct-19 11:44 34.212763 -119.084617 3 75ft 0kts
19-Oct-19 11:45 34.212763 -119.084617 3 75ft 0kts
19-Oct-19 11:46 34.213644 -119.085782 266 75ft 25kts
19-Oct-19 11:47 34.212942 -119.106791 264 985ft 84kts
19-Oct-19 11:48 34.209568 -119.133958 241 1675ft 75kts
19-Oct-19 11:49 34.198469 -119.121801 88 1960ft 92kts
19-Oct-19 11:50 34.200203 -119.091036 76 2546ft 92kts
19-Oct-19 11:51 34.197857 -119.060772 112 3328ft 92kts
19-Oct-19 11:52 34.190381 -119.025568 105 3526ft 120kts
19-Oct-19 11:53 34.180351 -118.985285 109 3484ft 124kts
19-Oct-19 11:54 34.169521 -118.944858 103 3465ft 125kts
19-Oct-19 11:55 34.162110 -118.903379 101 3466ft 124kts
19-Oct-19 11:56 34.156698 -118.861462 92 3515ft 124kts
19-Oct-19 11:57 34.153646 -118.818806 99 3484ft 125kts
19-Oct-19 11:58 34.146657 -118.776871 102 3464ft 124kts
19-Oct-19 11:59 34.143850 -118.734620 83 3502ft 122kts
19-Oct-19 12:00 34.149749 -118.693599 75 3518ft 122kts
19-Oct-19 12:01 34.154488 -118.651779 83 3514ft 122kts
19-Oct-19 12:02 34.154022 -118.609817 92 3500ft 122kts
19-Oct-19 12:03 34.149794 -118.568122 98 3487ft 121kts
19-Oct-19 12:04 34.138192 -118.528728 111 3411ft 125kts
19-Oct-19 12:05 34.110022 -118.514892 200 3116ft 118kts
19-Oct-19 12:06 34.112979 -118.541422 353 3789ft 113kts
19-Oct-19 12:07 34.114504 -118.518407 194 4776ft 99kts
19-Oct-19 12:08 34.121252 -118.535598 13 5525ft 113kts
19-Oct-19 12:09 34.115661 -118.512825 221 5464ft 105kts
19-Oct-19 12:10 34.129029 -118.520259 84 5416ft 127kts
19-Oct-19 12:11 34.104615 -118.499907 186 5429ft 108kts
19-Oct-19 12:12 34.075875 -118.495913 162 5487ft 108kts
19-Oct-19 12:13 34.045080 -118.480584 162 5487ft 127kts
19-Oct-19 12:14 34.011816 -118.464403 162 5484ft 128kts
19-Oct-19 12:15 33.977856 -118.449371 166 5483ft 128kts
19-Oct-19 12:16 33.943766 -118.435731 166 5481ft 127kts
19-Oct-19 12:17 33.913204 -118.412635 141 5477ft 129kts
19-Oct-19 12:18 33.886359 -118.384219 141 5478ft 130kts
19-Oct-19 12:19 33.857863 -118.355857 141 5478ft 130kts
19-Oct-19 12:20 33.830885 -118.330496 141 5492ft 130kts
19-Oct-19 12:21 33.805226 -118.307531 141 5495ft 129kts
19-Oct-19 12:22 33.777239 -118.280667 130 5497ft 126kts
19-Oct-19 12:23 33.752023 -118.249056 129 5498ft 125kts
19-Oct-19 12:24 33.729815 -118.217101 109 5476ft 117kts
19-Oct-19 12:25 33.722273 -118.178869 96 5354ft 114kts
19-Oct-19 12:26 33.715014 -118.140591 98 5393ft 116kts
19-Oct-19 12:27 33.705892 -118.102657 110 5452ft 119kts
19-Oct-19 12:28 33.695915 -118.065231 84 5504ft 116kts
19-Oct-19 12:29 33.693913 -118.025960 88 4598ft 120kts
19-Oct-19 12:30 33.708513 -118.004729 330 3652ft 89kts
19-Oct-19 12:31 33.706272 -118.027707 190 2719ft 101kts
19-Oct-19 12:32 33.705506 -118.004265 70 2336ft 98kts
19-Oct-19 12:33 33.699921 -117.972944 114 2396ft 98kts
19-Oct-19 12:34 33.686816 -117.943854 112 2109ft 98kts
19-Oct-19 12:35 33.676835 -117.913152 103 1490ft 98kts
19-Oct-19 12:36 33.682832 -117.884892 37 1160ft 86kts
19-Oct-19 12:37 33.702656 -117.868631 66 1192ft 86kts
19-Oct-19 12:38 33.691479 -117.858294 212 574ft 57kts
19-Oct-19 12:39 33.678818 -117.866753 208 78ft 42kts
19-Oct-19 12:40 33.673353 -117.870147 210 60ft 13kts
19-Oct-19 12:41 33.669910 -117.872156 176 60ft 15kts
19-Oct-19 12:42 33.667867 -117.872175 220 60ft 14kts
19-Oct-19 12:43 33.666894 -117.872048 138 60ft 0kts
19-Oct-19 12:44 33.666894 -117.872048 138 60ft 0kts

Navigation Log

Ident Type
Flight plan parsing failed, navigation log unavailable